Time;durP1;ratioP1;P1;durP2;ratioP2;P2;SDS_P1;SDS_P2;PMS_P1;PMS_P2;Temp;Humidity;BMP_temperature;BMP_pressure;BME280_temperature;BME280_humidity;BME280_pressure;Samples;Min_cycle;Max_cycle;Signal;HPM_P1;HPM_P2
2021/01/18 00:00:10;;;;;;;;;;;;;;;0.56;95.83;101950.22;4977237;28;1902;-79
2021/01/18 00:02:35;;;;;;;;;;;;;;;0.56;95.75;101955.66;4975485;28;1232;-79
2021/01/18 00:05:00;;;;;;;;;;;;;;;0.55;95.71;101954.84;4977563;28;972;-79
2021/01/18 00:07:26;;;;;;;;;;;;;;;0.56;95.64;101947.50;4976466;28;2042;-78
2021/01/18 00:09:51;;;;;;;;;;;;;;;0.58;95.70;101948.06;4980903;28;877;-78
2021/01/18 00:12:16;;;;;;;;;;;;;;;0.58;95.69;101953.50;4980593;28;874;-78
2021/01/18 00:14:41;;;;;;;;;;;;;;;0.61;95.49;101947.56;4980837;28;981;-78
2021/01/18 00:17:07;;;;;;;;;;;;;;;0.61;95.68;101953.00;4980290;28;2021;-78
2021/01/18 00:19:32;;;;;;;;;;;;;;;0.57;96.20;101946.41;4980720;28;1961;-78
2021/01/18 00:21:57;;;;;;;;;;;;;;;0.55;95.57;101952.13;4981046;28;969;-79
2021/01/18 00:24:23;;;;;;;;;;;;;;;0.54;95.52;101945.03;4981113;28;909;-79
2021/01/18 00:26:48;;;;;;;;;;;;;;;0.53;95.45;101948.81;4981606;28;1828;-78
2021/01/18 00:29:14;;;;;;;;;;;;;;;0.53;95.49;101951.53;4980149;28;1463;-79
2021/01/18 00:31:43;;;;;;;;;;;;;;;0.51;95.43;101942.78;4980286;28;806;-78
2021/01/18 00:34:09;;;;;;;;;;;;;;;0.50;95.58;101949.31;4980493;28;799;-78
2021/01/18 00:36:34;;;;;;;;;;;;;;;0.50;95.03;101954.75;4980057;28;1961;-78
2021/01/18 00:38:59;;;;;;;;;;;;;;;0.48;95.52;101945.19;4979731;28;1894;-78
2021/01/18 00:41:24;;;;;;;;;;;;;;;0.47;95.55;101947.09;4980369;28;850;-78
2021/01/18 00:43:50;;;;;;;;;;;;;;;0.44;95.32;101952.22;4980254;28;993;-78
2021/01/18 00:46:17;;;;;;;;;;;;;;;0.39;95.33;101954.84;4981536;28;2036;-78
2021/01/18 00:48:43;;;;;;;;;;;;;;;0.36;95.39;101942.56;4982472;28;1311;-78
2021/01/18 00:51:08;;;;;;;;;;;;;;;0.34;95.24;101947.44;4980609;28;874;-78
2021/01/18 00:53:33;;;;;;;;;;;;;;;0.37;95.48;101946.94;4980350;28;773;-79
2021/01/18 00:55:59;;;;;;;;;;;;;;;0.41;95.58;101937.22;4979529;28;2049;-78
2021/01/18 00:58:24;;;;;;;;;;;;;;;0.48;95.60;101937.84;4979682;28;1287;-78
2021/01/18 01:00:49;;;;;;;;;;;;;;;0.54;95.46;101938.78;4980158;28;1969;-78
2021/01/18 01:03:14;;;;;;;;;;;;;;;0.61;95.57;101933.16;4980039;28;1140;-78
2021/01/18 01:05:40;;;;;;;;;;;;;;;0.66;95.52;101930.53;4980140;28;1970;-79
2021/01/18 01:08:05;;;;;;;;;;;;;;;0.68;95.67;101936.53;4978026;28;1979;-78
2021/01/18 01:10:33;;;;;;;;;;;;;;;0.69;95.76;101939.00;4980284;28;1060;-78
2021/01/18 01:13:06;;;;;;;;;;;;;;;0.67;95.38;101937.59;4979959;28;786;-78
2021/01/18 01:15:32;;;;;;;;;;;;;;;0.65;95.34;101934.31;4979714;28;1977;-78
2021/01/18 01:17:58;;;;;;;;;;;;;;;0.69;95.52;101936.28;4979517;28;1393;-79
2021/01/18 01:20:24;;;;;;;;;;;;;;;0.71;95.43;101939.56;4979923;28;1875;-78
2021/01/18 01:22:50;;;;;;;;;;;;;;;0.75;95.38;101929.00;4980549;28;873;-78
2021/01/18 01:25:17;;;;;;;;;;;;;;;0.79;95.54;101940.19;4980215;28;962;-78
2021/01/18 01:27:43;;;;;;;;;;;;;;;0.80;95.28;101930.97;4980294;28;2140;-78
2021/01/18 01:30:17;;;;;;;;;;;;;;;0.81;95.41;101935.31;4989243;28;928;-78
2021/01/18 01:32:47;;;;;;;;;;;;;;;0.77;95.26;101929.56;4990314;28;1024;-78
2021/01/18 01:35:13;;;;;;;;;;;;;;;0.71;95.07;101933.28;4989892;28;1847;-77
2021/01/18 01:37:38;;;;;;;;;;;;;;;0.60;94.83;101939.66;4989632;28;1271;-77
2021/01/18 01:40:09;;;;;;;;;;;;;;;0.55;94.91;101940.41;4990456;28;1942;-77
2021/01/18 01:42:35;;;;;;;;;;;;;;;0.46;94.82;101937.28;4990593;28;1313;-78
2021/01/18 01:45:02;;;;;;;;;;;;;;;0.43;94.63;101939.69;4990409;28;1991;-78
2021/01/18 01:47:31;;;;;;;;;;;;;;;0.37;94.77;101936.06;4991067;28;1361;-78
2021/01/18 01:49:59;;;;;;;;;;;;;;;0.33;94.95;101933.03;4991036;28;997;-78
2021/01/18 01:52:26;;;;;;;;;;;;;;;0.21;94.70;101940.44;4983530;28;873;-78
2021/01/18 01:54:55;;;;;;;;;;;;;;;0.10;94.53;101939.44;4978292;28;2071;-78
2021/01/18 01:57:21;;;;;;;;;;;;;;;0.15;94.94;101939.50;4978736;28;1299;-78
2021/01/18 01:59:46;;;;;;;;;;;;;;;0.17;95.05;101940.13;4978775;28;1952;-78
2021/01/18 02:02:14;;;;;;;;;;;;;;;0.29;95.15;101948.16;4979262;28;841;-78
2021/01/18 02:04:39;;;;;;;;;;;;;;;0.38;95.47;101937.69;4978312;28;1995;-78
2021/01/18 02:07:21;;;;;;;;;;;;;;;0.47;95.90;101944.38;4978278;28;956;-78
2021/01/18 02:09:48;;;;;;;;;;;;;;;0.53;95.55;101946.09;4978764;28;771;-78
2021/01/18 02:12:14;;;;;;;;;;;;;;;0.60;95.55;101950.53;4978884;28;909;-78
2021/01/18 02:15:06;;;;;;;;;;;;;;;0.63;95.66;101945.41;4978604;28;1918;-77
2021/01/18 02:18:11;;;;;;;;;;;;;;;0.69;95.81;101952.59;4977949;28;1319;-78
2021/01/18 02:21:04;;;;;;;;;;;;;;;0.73;95.68;101942.84;4978247;28;1886;-78
2021/01/18 02:23:54;;;;;;;;;;;;;;;0.78;95.81;101946.69;4978039;28;2101;-78
2021/01/18 02:26:39;;;;;;;;;;;;;;;0.82;95.72;101943.25;4978608;28;1117;-78
2021/01/18 02:29:29;;;;;;;;;;;;;;;0.84;95.58;101943.00;4977316;28;1346;-78
2021/01/18 02:32:36;;;;;;;;;;;;;;;0.86;95.63;101938.13;4977292;28;2123;-78
2021/01/18 02:35:39;;;;;;;;;;;;;;;0.86;95.85;101943.56;4955649;28;1320;-78
2021/01/18 02:38:10;;;;;;;;;;;;;;;0.86;95.54;101941.66;4977617;28;1334;-78
2021/01/18 02:41:00;;;;;;;;;;;;;;;0.83;95.45;101942.19;4976973;28;2029;-78
2021/01/18 02:43:39;;;;;;;;;;;;;;;0.80;95.53;101939.13;4977884;28;798;-78
2021/01/18 02:46:07;;;;;;;;;;;;;;;0.81;95.56;101938.06;4977389;28;1808;-79
2021/01/18 02:48:32;;;;;;;;;;;;;;;0.80;95.72;101942.66;4977435;28;1373;-78
2021/01/18 02:51:04;;;;;;;;;;;;;;;0.81;95.57;101940.78;4977476;28;942;-78
2021/01/18 02:53:29;;;;;;;;;;;;;;;0.79;95.56;101941.00;4977682;28;897;-78
2021/01/18 02:55:54;;;;;;;;;;;;;;;0.78;95.59;101939.38;4977152;28;2037;-78
2021/01/18 02:58:22;;;;;;;;;;;;;;;0.79;95.56;101940.19;4976862;28;1942;-78
2021/01/18 03:01:25;;;;;;;;;;;;;;;0.77;95.55;101940.44;4977286;28;2056;-78
2021/01/18 03:04:13;;;;;;;;;;;;;;;0.77;95.74;101932.28;4976145;28;946;-79
2021/01/18 03:06:49;;;;;;;;;;;;;;;0.78;95.85;101925.78;4979925;28;855;-77
2021/01/18 03:09:25;;;;;;;;;;;;;;;0.79;95.66;101929.31;4979485;28;1812;-78
2021/01/18 03:11:58;;;;;;;;;;;;;;;0.78;95.59;101930.38;4977023;28;1032;-78
2021/01/18 03:14:29;;;;;;;;;;;;;;;0.74;95.46;101930.06;4977584;28;925;-78
2021/01/18 03:16:58;;;;;;;;;;;;;;;0.74;95.49;101928.19;4976109;28;1330;-78
2021/01/18 03:19:43;;;;;;;;;;;;;;;0.73;95.63;101929.25;4976785;28;1954;-79
2021/01/18 03:22:30;;;;;;;;;;;;;;;0.72;95.58;101933.03;4977412;28;925;-78
2021/01/18 03:25:05;;;;;;;;;;;;;;;0.73;95.56;101936.59;4977276;28;855;-78
2021/01/18 03:27:48;;;;;;;;;;;;;;;0.72;95.49;101932.22;4976677;28;2073;-79
2021/01/18 03:30:14;;;;;;;;;;;;;;;0.71;95.55;101928.69;4976887;28;814;-78
2021/01/18 03:32:39;;;;;;;;;;;;;;;0.69;95.37;101922.69;4977377;28;985;-78
2021/01/18 03:35:05;;;;;;;;;;;;;;;0.71;95.47;101922.41;4977363;28;905;-78
2021/01/18 03:37:30;;;;;;;;;;;;;;;0.69;95.41;101922.69;4975519;28;2087;-78
2021/01/18 03:39:56;;;;;;;;;;;;;;;0.67;95.43;101924.00;4977409;28;1894;-78
2021/01/18 03:42:21;;;;;;;;;;;;;;;0.64;95.49;101917.19;4979846;28;999;-78
2021/01/18 03:44:47;;;;;;;;;;;;;;;0.62;95.17;101923.91;4982929;28;922;-78
2021/01/18 03:47:12;;;;;;;;;;;;;;;0.61;95.46;101922.28;4982639;28;1961;-78
2021/01/18 03:49:37;;;;;;;;;;;;;;;0.60;95.19;101917.91;4982094;28;1397;-78
2021/01/18 03:52:03;;;;;;;;;;;;;;;0.58;95.40;101918.16;4983422;28;894;-78
2021/01/18 03:54:28;;;;;;;;;;;;;;;0.58;95.38;101914.63;4983037;28;862;-78
2021/01/18 03:56:53;;;;;;;;;;;;;;;0.58;95.25;101928.22;4983667;28;997;-78
2021/01/18 03:59:18;;;;;;;;;;;;;;;0.56;95.24;101920.31;4982689;28;1950;-78
2021/01/18 04:01:44;;;;;;;;;;;;;;;0.56;95.38;101923.84;4982775;28;1950;-78
2021/01/18 04:04:09;;;;;;;;;;;;;;;0.56;95.36;101928.47;4983058;28;973;-78
2021/01/18 04:06:41;;;;;;;;;;;;;;;0.54;95.24;101934.16;4981704;28;961;-78
2021/01/18 04:09:07;;;;;;;;;;;;;;;0.55;95.32;101940.41;4983157;28;1283;-78
2021/01/18 04:11:33;;;;;;;;;;;;;;;0.52;95.17;101936.31;4983469;28;893;-78
2021/01/18 04:13:58;;;;;;;;;;;;;;;0.50;95.06;101924.88;4982506;28;2076;-78
2021/01/18 04:16:24;;;;;;;;;;;;;;;0.50;95.27;101927.56;4983250;28;996;-78
2021/01/18 04:18:49;;;;;;;;;;;;;;;0.50;95.11;101932.16;4982935;28;1370;-78
2021/01/18 04:21:16;;;;;;;;;;;;;;;0.49;95.20;101931.34;4983302;28;1890;-78
2021/01/18 04:23:41;;;;;;;;;;;;;;;0.48;95.10;101929.69;4984222;28;881;-78
2021/01/18 04:26:06;;;;;;;;;;;;;;;0.49;94.93;101934.06;4982650;28;1909;-78
2021/01/18 04:28:32;;;;;;;;;;;;;;;0.50;95.25;101934.88;4983027;28;1263;-78
2021/01/18 04:30:57;;;;;;;;;;;;;;;0.52;94.97;101930.88;4983393;28;909;-78
2021/01/18 04:33:25;;;;;;;;;;;;;;;0.53;94.93;101927.06;4982694;28;847;-78
2021/01/18 04:35:51;;;;;;;;;;;;;;;0.50;94.87;101915.88;4983108;28;989;-79
2021/01/18 04:38:16;;;;;;;;;;;;;;;0.48;94.97;101915.28;4981011;28;1338;-78
2021/01/18 04:40:42;;;;;;;;;;;;;;;0.47;94.98;101919.09;4982445;28;1894;-79
2021/01/18 04:43:12;;;;;;;;;;;;;;;0.44;95.09;101914.16;4982565;28;830;-79
2021/01/18 04:45:37;;;;;;;;;;;;;;;0.44;94.98;101919.59;4982585;28;1302;-78
2021/01/18 04:48:03;;;;;;;;;;;;;;;0.42;94.94;101910.88;4982595;28;1394;-78
2021/01/18 04:50:29;;;;;;;;;;;;;;;0.40;94.93;101905.69;4983176;28;973;-78
2021/01/18 04:52:57;;;;;;;;;;;;;;;0.36;94.81;101913.50;4982370;28;886;-78
2021/01/18 04:55:29;;;;;;;;;;;;;;;0.33;94.96;101916.72;4979485;28;1937;-78
2021/01/18 04:58:06;;;;;;;;;;;;;;;0.29;95.18;101906.59;4978565;28;1259;-78
2021/01/18 05:00:35;;;;;;;;;;;;;;;0.27;95.10;101901.41;4980032;28;1952;-78
2021/01/18 05:03:06;;;;;;;;;;;;;;;0.24;95.13;101899.19;4980032;28;858;-78
2021/01/18 05:05:38;;;;;;;;;;;;;;;0.24;95.25;101893.75;4979843;28;886;-78
2021/01/18 05:08:05;;;;;;;;;;;;;;;0.23;95.08;101888.59;4979474;28;1307;-78
2021/01/18 05:10:32;;;;;;;;;;;;;;;0.16;94.66;101892.28;4979575;28;2065;-78
2021/01/18 05:13:02;;;;;;;;;;;;;;;0.10;94.86;101895.97;4979615;28;857;-78
2021/01/18 05:15:27;;;;;;;;;;;;;;;0.03;94.76;101886.34;4979009;28;860;-78
2021/01/18 05:18:04;;;;;;;;;;;;;;;0.00;94.83;101887.69;4979063;28;1263;-78
2021/01/18 05:20:30;;;;;;;;;;;;;;;-0.01;95.17;101880.59;4979274;28;1898;-78
2021/01/18 05:22:55;;;;;;;;;;;;;;;0.02;95.16;101890.13;4978092;28;1345;-79
2021/01/18 05:25:21;;;;;;;;;;;;;;;0.05;95.26;101886.94;4979071;28;2084;-78
2021/01/18 05:28:04;;;;;;;;;;;;;;;0.08;95.23;101884.53;4987086;28;1369;-78
2021/01/18 05:30:35;;;;;;;;;;;;;;;0.12;95.27;101891.13;4978959;28;838;-78
2021/01/18 05:33:10;;;;;;;;;;;;;;;0.16;95.24;101884.13;4979978;28;854;-78
2021/01/18 05:35:39;;;;;;;;;;;;;;;0.15;95.43;101881.66;4979240;28;928;-78
2021/01/18 05:38:10;;;;;;;;;;;;;;;0.14;95.08;101882.75;4977047;28;2084;-78
2021/01/18 05:40:40;;;;;;;;;;;;;;;0.20;95.41;101886.34;4979262;28;1890;-78
2021/01/18 05:43:06;;;;;;;;;;;;;;;0.26;95.48;101888.91;4979351;28;910;-78
2021/01/18 05:45:37;;;;;;;;;;;;;;;0.29;95.34;101885.66;4978587;28;992;-78
2021/01/18 05:48:04;;;;;;;;;;;;;;;0.36;95.24;101880.91;4978739;28;1256;-78
2021/01/18 05:50:30;;;;;;;;;;;;;;;0.36;95.17;101880.06;4978631;28;1311;-78
2021/01/18 05:52:59;;;;;;;;;;;;;;;0.36;94.96;101878.19;4977989;28;2024;-78
2021/01/18 05:55:26;;;;;;;;;;;;;;;0.38;95.11;101886.06;4979033;28;919;-78
2021/01/18 05:57:57;;;;;;;;;;;;;;;0.40;94.94;101880.38;4978993;28;1275;-77
2021/01/18 06:00:36;;;;;;;;;;;;;;;0.41;94.90;101879.31;4978469;28;1957;-78
2021/01/18 06:03:10;;;;;;;;;;;;;;;0.41;95.12;101880.13;4978927;28;913;-78
2021/01/18 06:05:39;;;;;;;;;;;;;;;0.42;94.86;101880.97;4977434;28;1993;-78
2021/01/18 06:08:11;;;;;;;;;;;;;;;0.43;94.92;101882.63;4978316;28;1354;-78
2021/01/18 06:10:37;;;;;;;;;;;;;;;0.43;94.86;101875.28;4978387;28;1265;-78
2021/01/18 06:13:02;;;;;;;;;;;;;;;0.42;94.67;101884.50;4978288;28;900;-78
2021/01/18 06:15:28;;;;;;;;;;;;;;;0.44;94.62;101878.84;4978080;28;1100;-78
2021/01/18 06:17:56;;;;;;;;;;;;;;;0.44;94.63;101882.38;4977603;28;1283;-78
2021/01/18 06:20:27;;;;;;;;;;;;;;;0.44;94.30;101876.94;4977962;28;2076;-78
2021/01/18 06:22:54;;;;;;;;;;;;;;;0.43;94.40;101880.69;4978606;28;860;-79
2021/01/18 06:25:20;;;;;;;;;;;;;;;0.41;94.40;101879.31;4978133;28;854;-78
2021/01/18 06:27:46;;;;;;;;;;;;;;;0.40;94.52;101885.81;4977677;28;1949;-78
2021/01/18 06:30:31;;;;;;;;;;;;;;;0.39;94.56;101881.47;4976732;28;1311;-78
2021/01/18 06:32:59;;;;;;;;;;;;;;;0.39;94.50;101882.28;4958998;28;973;-78
2021/01/18 06:35:28;;;;;;;;;;;;;;;0.40;94.69;101886.66;4958888;28;950;-78
2021/01/18 06:37:56;;;;;;;;;;;;;;;0.41;94.51;101882.03;4958350;28;1263;-78
2021/01/18 06:40:30;;;;;;;;;;;;;;;0.41;94.49;101885.56;4958839;28;1902;-78
2021/01/18 06:42:57;;;;;;;;;;;;;;;0.43;94.63;101894.28;4958711;28;882;-78
2021/01/18 06:45:30;;;;;;;;;;;;;;;0.44;94.61;101893.22;4970815;28;2073;-78
2021/01/18 06:47:57;;;;;;;;;;;;;;;0.46;94.46;101888.38;4978201;28;1371;-79
2021/01/18 06:50:31;;;;;;;;;;;;;;;0.48;94.71;101896.28;4980645;28;849;-78
2021/01/18 06:53:17;;;;;;;;;;;;;;;0.52;94.72;101902.84;4980107;28;934;-78
2021/01/18 06:56:15;;;;;;;;;;;;;;;0.63;94.59;101891.06;4977566;28;1242;-81
2021/01/18 06:59:08;;;;;;;;;;;;;;;0.93;94.76;101896.09;4979740;28;1623;-81
2021/01/18 07:01:34;;;;;;;;;;;;;;;0.89;94.26;101886.75;4981002;28;1068;-81
2021/01/18 07:04:08;;;;;;;;;;;;;;;0.94;93.90;101891.44;4982456;28;806;-81
2021/01/18 07:06:39;;;;;;;;;;;;;;;0.97;93.69;101890.09;4983515;28;934;-81
2021/01/18 07:09:26;;;;;;;;;;;;;;;0.86;93.64;101878.28;4978279;28;1303;-79
2021/01/18 07:12:02;;;;;;;;;;;;;;;0.81;93.51;101886.38;4978898;28;861;-79
2021/01/18 07:14:30;;;;;;;;;;;;;;;0.78;93.87;101878.72;4978419;28;2096;-78
2021/01/18 07:17:03;;;;;;;;;;;;;;;0.78;94.01;101879.56;4977539;28;1932;-79
2021/01/18 07:19:34;;;;;;;;;;;;;;;0.80;93.87;101882.84;4958981;28;1894;-78
2021/01/18 07:22:14;;;;;;;;;;;;;;;0.80;93.82;101876.59;4959984;28;930;-78
2021/01/18 07:24:47;;;;;;;;;;;;;;;0.83;93.83;101879.63;4958563;29;891;-78
2021/01/18 07:27:15;;;;;;;;;;;;;;;0.84;93.92;101875.00;4957372;28;1311;-79
2021/01/18 07:29:41;;;;;;;;;;;;;;;0.86;93.98;101879.09;4958422;28;907;-79
2021/01/18 07:32:08;;;;;;;;;;;;;;;0.90;93.83;101879.41;4975352;28;2041;-79
2021/01/18 07:34:35;;;;;;;;;;;;;;;0.92;93.81;101872.66;4977984;28;1839;-79
2021/01/18 07:37:08;;;;;;;;;;;;;;;0.95;93.94;101876.75;4976282;28;1832;-80
2021/01/18 07:39:38;;;;;;;;;;;;;;;0.99;93.85;101869.75;4978174;28;1895;-78
2021/01/18 07:42:05;;;;;;;;;;;;;;;1.01;93.86;101864.06;4976240;28;1749;-79
2021/01/18 07:44:44;;;;;;;;;;;;;;;1.05;93.83;101867.91;4977573;28;1848;-78
2021/01/18 07:47:12;;;;;;;;;;;;;;;1.06;93.65;101854.06;4982670;28;1369;-77
2021/01/18 07:49:46;;;;;;;;;;;;;;;1.09;93.78;101861.72;4980292;28;806;-77
2021/01/18 07:52:16;;;;;;;;;;;;;;;1.11;93.65;101859.56;4977468;28;2001;-78
2021/01/18 07:54:42;;;;;;;;;;;;;;;1.15;93.61;101854.44;4973739;28;2002;-77
2021/01/18 07:57:38;;;;;;;;;;;;;;;1.19;93.38;101852.00;4957928;28;862;-78
2021/01/18 08:00:18;;;;;;;;;;;;;;;1.23;93.33;101856.69;4957799;28;1898;-78
2021/01/18 08:02:47;;;;;;;;;;;;;;;1.27;93.44;101859.72;4957918;29;871;-78
2021/01/18 08:05:34;;;;;;;;;;;;;;;1.30;93.21;101845.63;4958287;29;992;-78
2021/01/18 08:08:10;;;;;;;;;;;;;;;1.37;93.09;101845.38;4975756;28;1722;-77
2021/01/18 08:10:58;;;;;;;;;;;;;;;1.41;92.95;101843.81;4977604;28;822;-78
2021/01/18 08:13:38;;;;;;;;;;;;;;;1.42;92.81;101837.25;4978887;28;885;-79
2021/01/18 08:16:27;;;;;;;;;;;;;;;1.44;92.68;101835.94;4978188;28;880;-79
2021/01/18 08:19:15;;;;;;;;;;;;;;;1.48;92.54;101841.69;4976453;28;2040;-79
2021/01/18 08:21:45;;;;;;;;;;;;;;;1.50;92.84;101828.63;4974108;28;1997;-78
2021/01/18 08:24:23;;;;;;;;;;;;;;;1.51;92.49;101830.28;4977199;28;862;-78
2021/01/18 08:27:05;;;;;;;;;;;;;;;1.51;92.78;101835.75;4977775;28;1935;-79
2021/01/18 08:29:36;;;;;;;;;;;;;;;1.52;92.37;101836.56;4979048;28;2253;-77
2021/01/18 08:32:33;;;;;;;;;;;;;;;1.52;92.46;101829.19;4979708;28;1971;-78
2021/01/18 08:35:02;;;;;;;;;;;;;;;1.52;92.63;101826.47;4980701;28;901;-78
2021/01/18 08:37:29;;;;;;;;;;;;;;;1.54;92.40;101818.91;4980261;28;1267;-78
2021/01/18 08:39:57;;;;;;;;;;;;;;;1.55;92.23;101822.44;4980731;28;1906;-78
2021/01/18 08:42:28;;;;;;;;;;;;;;;1.58;92.28;101832.81;4979467;28;902;-79
2021/01/18 08:44:58;;;;;;;;;;;;;;;1.61;92.29;101824.94;4979734;28;2020;-78
2021/01/18 08:47:43;;;;;;;;;;;;;;;1.62;92.61;101818.41;4979747;28;1940;-76
2021/01/18 08:50:19;;;;;;;;;;;;;;;1.62;92.54;101823.03;4979349;28;2049;-77
2021/01/18 08:52:44;;;;;;;;;;;;;;;1.64;92.86;101812.69;4977338;28;1829;-77
2021/01/18 08:55:40;;;;;;;;;;;;;;;1.68;93.16;101805.66;4979423;28;2033;-78
2021/01/18 08:58:05;;;;;;;;;;;;;;;1.75;92.59;101821.75;4979909;28;1259;-78
2021/01/18 09:00:44;;;;;;;;;;;;;;;1.78;92.84;101813.06;4979497;28;1891;-77
2021/01/18 09:03:20;;;;;;;;;;;;;;;1.83;92.55;101810.41;4979354;28;1773;-78
2021/01/18 09:05:47;;;;;;;;;;;;;;;1.92;92.92;101813.44;4979716;28;977;-77
2021/01/18 09:08:14;;;;;;;;;;;;;;;1.97;92.05;101814.34;4978869;28;1911;-78
2021/01/18 09:10:40;;;;;;;;;;;;;;;2.01;92.61;101803.72;4977208;28;1984;-79
2021/01/18 09:13:07;;;;;;;;;;;;;;;2.03;91.96;101809.72;4969785;28;1950;-78
2021/01/18 09:15:33;;;;;;;;;;;;;;;2.04;91.81;101814.91;4977682;28;2217;-78
2021/01/18 09:18:08;;;;;;;;;;;;;;;2.12;91.87;101812.78;4975410;28;1879;-79
2021/01/18 09:20:36;;;;;;;;;;;;;;;2.19;92.01;101813.38;4970391;28;2001;-77
2021/01/18 09:23:07;;;;;;;;;;;;;;;2.19;92.39;101810.63;4977772;28;1623;-78
2021/01/18 09:25:34;;;;;;;;;;;;;;;2.18;91.91;101809.81;4976444;28;1829;-78
2021/01/18 09:28:11;;;;;;;;;;;;;;;2.24;91.55;101807.94;4975344;28;1913;-79
2021/01/18 09:30:38;;;;;;;;;;;;;;;2.28;92.08;101797.34;4976405;28;2110;-79
2021/01/18 09:33:06;;;;;;;;;;;;;;;2.26;91.60;101795.69;4977049;28;1375;-78
2021/01/18 09:35:39;;;;;;;;;;;;;;;2.28;92.16;101809.03;4977829;28;1458;-79
2021/01/18 09:38:06;;;;;;;;;;;;;;;2.25;91.61;101796.78;4972311;28;1770;-79
2021/01/18 09:40:37;;;;;;;;;;;;;;;2.36;92.25;101799.56;4976796;28;1949;-78
2021/01/18 09:43:04;;;;;;;;;;;;;;;2.37;92.13;101793.84;4964598;28;1237;-79
2021/01/18 09:45:30;;;;;;;;;;;;;;;2.44;91.35;101791.69;4962785;28;1297;-79
2021/01/18 09:48:02;;;;;;;;;;;;;;;2.43;91.79;101790.03;4973206;28;2278;-78
2021/01/18 09:50:28;;;;;;;;;;;;;;;2.43;91.09;101790.03;4978544;28;1832;-77
2021/01/18 09:52:53;;;;;;;;;;;;;;;2.44;91.34;101788.97;4978897;28;1008;-78
2021/01/18 09:55:27;;;;;;;;;;;;;;;2.42;91.86;101788.44;4977964;28;2621;-78
2021/01/18 09:58:03;;;;;;;;;;;;;;;2.44;91.75;101780.78;4977937;28;2180;-78
2021/01/18 10:00:34;;;;;;;;;;;;;;;2.51;91.66;101782.44;4978382;28;1937;-78
2021/01/18 10:03:00;;;;;;;;;;;;;;;2.57;91.67;101773.22;4982983;28;1804;-77
2021/01/18 10:05:34;;;;;;;;;;;;;;;2.61;91.15;101777.88;4979473;28;1571;-77
2021/01/18 10:08:03;;;;;;;;;;;;;;;2.66;91.37;101771.59;4978307;28;1350;-78
2021/01/18 10:10:39;;;;;;;;;;;;;;;2.69;91.34;101764.81;4977489;28;2080;-77
2021/01/18 10:13:06;;;;;;;;;;;;;;;2.69;90.60;101770.25;4975179;28;2163;-78
2021/01/18 10:15:31;;;;;;;;;;;;;;;2.72;90.64;101776.00;4976033;28;1890;-78
2021/01/18 10:17:57;;;;;;;;;;;;;;;2.72;90.93;101767.81;4975261;28;1754;-78
2021/01/18 10:20:30;;;;;;;;;;;;;;;2.75;90.48;101763.72;4974868;28;1871;-79
2021/01/18 10:22:57;;;;;;;;;;;;;;;2.78;90.79;101763.19;4975974;28;1335;-78
2021/01/18 10:25:27;;;;;;;;;;;;;;;2.80;90.12;101756.38;4970417;28;1238;-78
2021/01/18 10:27:54;;;;;;;;;;;;;;;2.86;90.57;101753.66;4957777;28;1406;-77
2021/01/18 10:30:28;;;;;;;;;;;;;;;2.86;89.93;101748.22;4976061;28;1807;-78
2021/01/18 10:32:55;;;;;;;;;;;;;;;2.95;90.26;101747.41;4975674;28;1780;-78
2021/01/18 10:35:24;;;;;;;;;;;;;;;2.97;89.88;101749.84;4976162;28;1812;-78
2021/01/18 10:37:50;;;;;;;;;;;;;;;2.96;89.73;101746.31;4975933;28;1764;-77
2021/01/18 10:40:22;;;;;;;;;;;;;;;2.99;90.02;101748.50;4980938;28;1960;-77
2021/01/18 10:42:52;;;;;;;;;;;;;;;3.00;89.66;101741.13;4981317;28;1592;-78
2021/01/18 10:45:22;;;;;;;;;;;;;;;3.04;89.96;101741.41;4980963;28;1206;-78
2021/01/18 10:47:55;;;;;;;;;;;;;;;3.05;90.43;101734.88;4976113;28;1468;-77
2021/01/18 10:50:31;;;;;;;;;;;;;;;3.08;89.99;101737.88;4970775;28;1238;-77
2021/01/18 10:53:05;;;;;;;;;;;;;;;3.07;89.76;101729.97;4980817;28;1723;-77
2021/01/18 10:55:30;;;;;;;;;;;;;;;3.14;89.48;101730.50;4975692;28;1985;-77
2021/01/18 10:57:56;;;;;;;;;;;;;;;3.12;89.76;101725.31;4982979;28;1856;-77
2021/01/18 11:00:23;;;;;;;;;;;;;;;3.14;89.40;101722.31;4984109;28;2234;-78
2021/01/18 11:02:58;;;;;;;;;;;;;;;3.17;88.67;101719.06;4974931;28;1724;-77
2021/01/18 11:05:32;;;;;;;;;;;;;;;3.16;88.71;101725.59;4975223;28;2343;-77
2021/01/18 11:07:59;;;;;;;;;;;;;;;3.17;89.70;101708.13;4976130;28;1881;-77
2021/01/18 11:10:27;;;;;;;;;;;;;;;3.16;88.44;101717.41;4974491;28;877;-77
2021/01/18 11:13:03;;;;;;;;;;;;;;;3.18;88.69;101720.69;4975910;28;2197;-77
2021/01/18 11:15:40;;;;;;;;;;;;;;;3.27;88.81;101710.88;4974849;28;2346;-77
2021/01/18 11:18:08;;;;;;;;;;;;;;;3.35;88.00;101699.38;4974839;28;2251;-77
2021/01/18 11:20:34;;;;;;;;;;;;;;;3.34;87.95;101711.41;4971871;28;2252;-76
2021/01/18 11:23:01;;;;;;;;;;;;;;;3.37;88.04;101708.13;4976175;28;2324;-77
2021/01/18 11:25:29;;;;;;;;;;;;;;;3.35;88.28;101707.56;4968017;28;2247;-80
2021/01/18 11:28:06;;;;;;;;;;;;;;;3.39;88.66;101711.41;4967680;28;1984;-78
2021/01/18 11:30:31;;;;;;;;;;;;;;;3.47;87.94;101698.28;4978364;28;932;-78
2021/01/18 11:32:56;;;;;;;;;;;;;;;3.44;87.80;101696.09;4976466;28;1860;-78
2021/01/18 11:35:22;;;;;;;;;;;;;;;3.49;87.35;101705.09;4975309;28;2223;-79
2021/01/18 11:37:47;;;;;;;;;;;;;;;3.53;87.45;101694.44;4977837;28;1978;-78
2021/01/18 11:40:13;;;;;;;;;;;;;;;3.60;87.32;101688.69;4977853;28;2020;-79
2021/01/18 11:42:38;;;;;;;;;;;;;;;3.56;87.99;101694.75;4976984;28;1418;-79
2021/01/18 11:45:06;;;;;;;;;;;;;;;3.52;88.65;101692.81;4977534;28;1562;-79
2021/01/18 11:47:39;;;;;;;;;;;;;;;3.49;88.02;101688.72;4977913;28;1283;-80
2021/01/18 11:50:09;;;;;;;;;;;;;;;3.50;88.62;101692.28;4978408;28;1002;-79
2021/01/18 11:52:46;;;;;;;;;;;;;;;3.53;88.62;101676.16;4972843;28;1789;-78
2021/01/18 11:55:13;;;;;;;;;;;;;;;3.57;87.57;101682.69;4966254;28;1204;-79
2021/01/18 11:57:44;;;;;;;;;;;;;;;3.59;88.19;101674.25;4961188;28;1441;-79
2021/01/18 12:00:13;;;;;;;;;;;;;;;3.51;88.04;101669.31;4963565;28;1890;-79
2021/01/18 12:02:38;;;;;;;;;;;;;;;3.46;88.04;101661.97;4963663;28;1349;-79
2021/01/18 12:05:05;;;;;;;;;;;;;;;3.42;88.78;101657.34;4981307;28;1305;-78
2021/01/18 12:07:31;;;;;;;;;;;;;;;3.36;88.90;101660.06;4973843;28;1903;-79
2021/01/18 12:09:56;;;;;;;;;;;;;;;3.34;89.45;101658.69;4972975;28;2030;-80
2021/01/18 12:12:21;;;;;;;;;;;;;;;3.31;89.31;101659.28;4980247;28;2023;-78
2021/01/18 12:14:47;;;;;;;;;;;;;;;3.28;89.60;101652.44;4984497;28;2194;-78
2021/01/18 12:17:12;;;;;;;;;;;;;;;3.23;90.42;101651.63;4977262;28;2213;-79
2021/01/18 12:19:37;;;;;;;;;;;;;;;3.20;90.99;101642.91;4978403;28;2026;-80
2021/01/18 12:22:02;;;;;;;;;;;;;;;3.21;90.94;101640.97;4980550;28;2011;-78
2021/01/18 12:24:28;;;;;;;;;;;;;;;3.21;90.53;101635.53;4980816;28;2226;-78
2021/01/18 12:26:54;;;;;;;;;;;;;;;3.17;90.22;101626.25;4980642;28;2204;-79
2021/01/18 12:29:20;;;;;;;;;;;;;;;3.18;91.18;101625.16;4978682;28;2479;-78
2021/01/18 12:31:45;;;;;;;;;;;;;;;3.16;90.52;101624.63;4979218;28;1935;-79
2021/01/18 12:34:11;;;;;;;;;;;;;;;3.18;90.61;101614.22;4979793;28;2149;-80
2021/01/18 12:36:36;;;;;;;;;;;;;;;3.19;90.84;101624.88;4980665;28;2263;-78
2021/01/18 12:39:08;;;;;;;;;;;;;;;3.16;91.19;101619.97;4981049;28;1272;-78
2021/01/18 12:41:36;;;;;;;;;;;;;;;3.15;90.86;101620.22;4979998;28;2180;-78
2021/01/18 12:44:02;;;;;;;;;;;;;;;3.12;91.38;101615.34;4980515;28;779;-78
2021/01/18 12:46:27;;;;;;;;;;;;;;;3.08;91.64;101606.91;4979419;28;2216;-78
2021/01/18 12:48:52;;;;;;;;;;;;;;;3.08;92.04;101616.97;4978187;28;1912;-78
2021/01/18 12:51:18;;;;;;;;;;;;;;;3.07;92.53;101618.88;4980344;28;888;-77
2021/01/18 12:53:44;;;;;;;;;;;;;;;3.04;91.93;101608.50;4979176;28;2133;-78
2021/01/18 12:56:30;;;;;;;;;;;;;;;3.03;92.04;101617.81;4975928;28;2185;-78
2021/01/18 12:58:56;;;;;;;;;;;;;;;2.99;92.43;101601.16;4977118;28;2475;-78
2021/01/18 13:01:32;;;;;;;;;;;;;;;2.97;92.94;101607.97;4978222;28;2033;-79
2021/01/18 13:03:58;;;;;;;;;;;;;;;2.95;92.77;101596.53;4971112;28;2040;-79
2021/01/18 13:06:41;;;;;;;;;;;;;;;2.94;92.99;101606.63;4972069;28;2434;-77
2021/01/18 13:09:08;;;;;;;;;;;;;;;2.94;93.16;101605.78;4964623;28;2496;-79
2021/01/18 13:11:34;;;;;;;;;;;;;;;2.94;93.83;101598.44;4968909;28;2466;-78
2021/01/18 13:14:00;;;;;;;;;;;;;;;2.95;93.09;101583.69;4974380;28;2317;-78
2021/01/18 13:16:25;;;;;;;;;;;;;;;2.95;93.00;101577.44;4977731;28;2246;-78